createdAt,value
2023-03-02T00:01:50.966Z,8.55
2023-03-02T00:04:21.882Z,8.55
2023-03-02T00:06:49.166Z,8.55
2023-03-02T00:09:15.948Z,8.56
2023-03-02T00:11:42.596Z,8.59
2023-03-02T00:14:09.135Z,8.63
2023-03-02T00:16:35.719Z,8.63
2023-03-02T00:19:02.364Z,8.61
2023-03-02T00:21:29.109Z,8.57
2023-03-02T00:23:55.682Z,8.54
2023-03-02T00:26:22.252Z,8.54
2023-03-02T00:28:48.915Z,8.51
2023-03-02T00:31:15.628Z,8.51
2023-03-02T00:33:42.342Z,8.53
2023-03-02T00:36:19.183Z,8.49
2023-03-02T00:38:45.766Z,8.54
2023-03-02T00:41:13.959Z,8.59
2023-03-02T00:43:40.578Z,8.60
2023-03-02T00:46:17.723Z,8.56
2023-03-02T00:48:44.464Z,8.58
2023-03-02T00:51:11.660Z,8.59
2023-03-02T00:53:38.453Z,8.61
2023-03-02T00:56:05.954Z,8.60
2023-03-02T00:58:32.845Z,8.62
2023-03-02T01:01:04.171Z,8.63
2023-03-02T01:03:30.817Z,8.60
2023-03-02T01:05:58.579Z,8.60
2023-03-02T01:08:25.323Z,8.57
2023-03-02T01:10:54.331Z,8.55
2023-03-02T01:13:21.114Z,8.53
2023-03-02T01:15:47.613Z,8.48
2023-03-02T01:18:14.393Z,8.43
2023-03-02T01:20:40.973Z,8.40
2023-03-02T01:23:07.439Z,8.40
2023-03-02T01:25:33.992Z,8.39
2023-03-02T01:28:00.470Z,8.37
2023-03-02T01:30:27.070Z,8.32
2023-03-02T01:32:53.585Z,8.28
2023-03-02T01:35:20.172Z,8.27
2023-03-02T01:37:46.775Z,8.29
2023-03-02T01:40:14.412Z,8.31
2023-03-02T01:42:47.644Z,8.32
2023-03-02T01:45:59.545Z,8.32
2023-03-02T01:48:30.145Z,8.34
2023-03-02T01:50:57.605Z,8.36
2023-03-02T01:53:26.372Z,8.35
2023-03-02T01:55:53.377Z,8.33
2023-03-02T01:58:20.754Z,8.31
2023-03-02T02:00:47.751Z,8.31
2023-03-02T02:03:21.237Z,8.33
2023-03-02T02:06:04.363Z,8.34
2023-03-02T02:08:31.221Z,8.37
2023-03-02T02:10:58.740Z,8.42
2023-03-02T02:13:25.379Z,8.41
2023-03-02T02:15:52.137Z,8.41
2023-03-02T02:18:18.712Z,8.43
2023-03-02T02:20:54.915Z,8.42
2023-03-02T02:23:34.410Z,8.42
2023-03-02T02:26:13.585Z,8.46
2023-03-02T02:28:57.662Z,8.45
2023-03-02T02:32:01.678Z,8.44
2023-03-02T02:34:54.534Z,8.44
2023-03-02T02:37:32.312Z,8.44
2023-03-02T02:39:59.703Z,8.43
2023-03-02T02:42:38.398Z,8.41
2023-03-02T02:45:07.638Z,8.41
2023-03-02T02:47:34.427Z,8.43
2023-03-02T02:50:01.153Z,8.48
2023-03-02T02:52:28.977Z,8.49
2023-03-02T02:54:57.271Z,8.49
2023-03-02T02:57:26.623Z,8.50
2023-03-02T02:59:56.495Z,8.47
2023-03-02T03:02:25.842Z,8.45
2023-03-02T03:05:03.749Z,8.47
2023-03-02T03:07:33.096Z,8.50
2023-03-02T03:10:01.888Z,8.50
2023-03-02T03:12:29.311Z,8.52
2023-03-02T03:14:55.857Z,8.53
2023-03-02T03:17:22.486Z,8.56
2023-03-02T03:19:49.046Z,8.57
2023-03-02T03:22:16.864Z,8.58
2023-03-02T03:24:45.079Z,8.59
2023-03-02T03:27:14.434Z,8.58
2023-03-02T03:29:48.186Z,8.62
2023-03-02T03:32:14.875Z,8.62
2023-03-02T03:34:42.208Z,8.61
2023-03-02T03:37:11.429Z,8.61
2023-03-02T03:39:38.115Z,8.58
2023-03-02T03:42:05.151Z,8.56
2023-03-02T03:44:31.830Z,8.54
2023-03-02T03:46:58.774Z,8.54
2023-03-02T03:49:27.638Z,8.52
2023-03-02T03:51:54.325Z,8.51
2023-03-02T03:54:21.176Z,8.49
2023-03-02T03:56:49.564Z,8.48
2023-03-02T03:59:22.688Z,8.49
2023-03-02T04:01:52.049Z,8.48
2023-03-02T04:04:24.719Z,8.47
2023-03-02T04:06:52.044Z,8.46
2023-03-02T04:09:18.589Z,8.45
2023-03-02T04:11:47.222Z,8.43
2023-03-02T04:14:14.225Z,8.43
2023-03-02T04:16:41.754Z,8.44
2023-03-02T04:19:09.846Z,8.46
2023-03-02T04:21:41.552Z,8.45
2023-03-02T04:24:09.665Z,8.43
2023-03-02T04:26:37.382Z,8.44
2023-03-02T04:29:04.514Z,8.44
2023-03-02T04:31:34.202Z,8.45
2023-03-02T04:34:04.262Z,8.46
2023-03-02T04:36:32.917Z,8.45
2023-03-02T04:38:59.779Z,8.46
2023-03-02T04:41:26.424Z,8.48
2023-03-02T04:43:53.025Z,8.47
2023-03-02T04:46:23.796Z,8.47
2023-03-02T04:48:50.821Z,8.47
2023-03-02T04:51:24.178Z,8.45
2023-03-02T04:53:52.338Z,8.44
2023-03-02T04:56:18.954Z,8.42
2023-03-02T04:58:45.471Z,8.39
2023-03-02T05:01:13.081Z,8.39
2023-03-02T05:03:39.631Z,8.38
2023-03-02T05:06:06.461Z,8.42
2023-03-02T05:08:33.070Z,8.43
2023-03-02T05:10:59.969Z,8.45
2023-03-02T05:13:26.913Z,8.45
2023-03-02T05:15:53.768Z,8.43
2023-03-02T05:18:20.539Z,8.45
2023-03-02T05:20:47.121Z,8.45
2023-03-02T05:23:25.533Z,8.43
2023-03-02T05:25:54.420Z,8.43
2023-03-02T05:28:22.673Z,8.44
2023-03-02T05:30:49.889Z,8.45
2023-03-02T05:33:16.993Z,8.47
2023-03-02T05:35:44.201Z,8.46
2023-03-02T05:38:11.736Z,8.46
2023-03-02T05:40:39.881Z,8.44
2023-03-02T05:43:07.001Z,8.44
2023-03-02T05:45:38.571Z,8.43
2023-03-02T05:48:05.867Z,8.42
2023-03-02T05:50:33.196Z,8.39
2023-03-02T05:53:02.434Z,8.37
2023-03-02T05:55:29.296Z,8.33
2023-03-02T05:57:56.112Z,8.33
2023-03-02T06:00:22.976Z,8.31
2023-03-02T06:02:49.542Z,8.30
2023-03-02T06:05:18.297Z,8.32
2023-03-02T06:07:45.417Z,8.34
2023-03-02T06:10:13.162Z,8.39
2023-03-02T06:12:40.068Z,8.41
2023-03-02T06:15:07.842Z,8.44
2023-03-02T06:17:34.682Z,8.50
2023-03-02T06:20:01.360Z,8.58
2023-03-02T06:22:28.003Z,8.64
2023-03-02T06:24:55.490Z,8.70
2023-03-02T06:27:22.016Z,8.75
2023-03-02T06:29:49.076Z,8.80
2023-03-02T06:32:15.714Z,8.83
2023-03-02T06:34:42.513Z,8.85
2023-03-02T06:37:09.113Z,8.87
2023-03-02T06:39:35.604Z,8.90
2023-03-02T06:42:02.135Z,8.93
2023-03-02T06:44:28.792Z,8.98
2023-03-02T06:46:55.373Z,9.01
2023-03-02T06:49:21.926Z,9.03
2023-03-02T06:51:48.551Z,9.07
2023-03-02T06:54:15.138Z,9.11
2023-03-02T06:56:41.713Z,9.17
2023-03-02T06:59:08.294Z,9.22
2023-03-02T07:01:36.337Z,9.25
2023-03-02T07:04:03.683Z,9.29
2023-03-02T07:06:30.292Z,9.34
2023-03-02T07:08:56.880Z,9.40
2023-03-02T07:11:23.919Z,9.46
2023-03-02T07:13:51.149Z,9.51
2023-03-02T07:16:17.834Z,9.58
2023-03-02T07:18:44.389Z,9.61
2023-03-02T07:21:11.095Z,9.63
2023-03-02T07:23:37.667Z,9.69
2023-03-02T07:26:08.522Z,9.75
2023-03-02T07:28:39.775Z,9.80
2023-03-02T07:31:06.566Z,9.86
2023-03-02T07:33:33.229Z,9.89
2023-03-02T07:35:59.875Z,9.92
2023-03-02T07:38:26.415Z,9.98
2023-03-02T07:40:53.131Z,10.01
2023-03-02T07:43:20.048Z,10.08
2023-03-02T07:45:46.731Z,10.11
2023-03-02T07:48:13.331Z,10.14
2023-03-02T07:50:39.909Z,10.19
2023-03-02T07:53:06.609Z,10.22
2023-03-02T07:55:33.343Z,10.25
2023-03-02T07:57:59.984Z,10.33
2023-03-02T08:00:27.001Z,10.38
2023-03-02T08:02:53.663Z,10.42
2023-03-02T08:05:20.279Z,10.48
2023-03-02T08:07:47.114Z,10.53
2023-03-02T08:10:13.689Z,10.58
2023-03-02T08:12:40.855Z,10.61
2023-03-02T08:15:07.835Z,10.68
2023-03-02T08:17:34.429Z,10.76
2023-03-02T08:20:00.988Z,10.82
2023-03-02T08:22:27.700Z,10.84
2023-03-02T08:24:54.296Z,10.85
2023-03-02T08:27:20.797Z,10.89
2023-03-02T08:29:47.399Z,10.94
2023-03-02T08:32:14.206Z,11.07
2023-03-02T08:34:41.163Z,11.14
2023-03-02T08:37:07.808Z,11.18
2023-03-02T08:39:34.365Z,11.25
2023-03-02T08:42:00.950Z,11.31
2023-03-02T08:44:27.577Z,11.35
2023-03-02T08:46:55.081Z,11.35
2023-03-02T08:49:21.794Z,11.36
2023-03-02T08:51:53.447Z,11.42
2023-03-02T08:54:22.577Z,11.46
2023-03-02T08:56:49.401Z,11.45
2023-03-02T08:59:16.219Z,11.44
2023-03-02T09:01:42.835Z,11.47
2023-03-02T09:04:10.658Z,11.53
2023-03-02T09:06:40.133Z,11.62
2023-03-02T09:09:07.748Z,11.72
2023-03-02T09:11:34.700Z,11.78
2023-03-02T09:14:01.522Z,11.70
2023-03-02T09:16:28.222Z,11.70
2023-03-02T09:18:55.062Z,11.71
2023-03-02T09:21:21.914Z,11.77
2023-03-02T09:23:48.441Z,11.70
2023-03-02T09:26:15.022Z,11.69
2023-03-02T09:28:41.760Z,11.75
2023-03-02T09:31:08.755Z,11.79
2023-03-02T09:33:35.550Z,11.73
2023-03-02T09:36:07.056Z,11.67
2023-03-02T09:38:33.654Z,11.71
2023-03-02T09:41:06.400Z,11.74
2023-03-02T09:43:45.827Z,11.73
2023-03-02T09:46:23.843Z,11.72
2023-03-02T09:49:12.046Z,11.77
2023-03-02T09:51:57.357Z,11.74
2023-03-02T09:54:27.168Z,11.71
2023-03-02T09:56:57.245Z,11.74
2023-03-02T09:59:26.801Z,11.81
2023-03-02T10:02:01.305Z,11.90
2023-03-02T10:04:41.494Z,11.97
2023-03-02T10:07:14.022Z,12.04
2023-03-02T10:09:41.030Z,12.00
2023-03-02T10:12:41.566Z,11.98
2023-03-02T10:15:15.977Z,11.84
2023-03-02T10:17:54.307Z,11.78
2023-03-02T10:20:55.169Z,11.89
2023-03-02T10:23:40.442Z,11.93
2023-03-02T10:26:11.040Z,11.90
2023-03-02T10:28:42.576Z,11.96
2023-03-02T10:31:13.046Z,11.99
2023-03-02T10:33:42.009Z,12.04
2023-03-02T10:36:30.985Z,12.03
2023-03-02T10:39:00.587Z,11.96
2023-03-02T10:41:39.991Z,12.03
2023-03-02T10:44:15.881Z,12.11
2023-03-02T10:46:45.119Z,12.17
2023-03-02T10:49:31.400Z,12.19
2023-03-02T10:52:15.380Z,12.13
2023-03-02T10:54:42.493Z,12.14
2023-03-02T10:57:31.849Z,12.19
2023-03-02T11:00:06.096Z,12.28
2023-03-02T11:02:34.974Z,12.37
2023-03-02T11:05:29.561Z,12.51
2023-03-02T11:07:57.540Z,12.49
2023-03-02T11:10:39.039Z,12.50
2023-03-02T11:13:19.841Z,12.55
2023-03-02T11:15:56.384Z,12.59
2023-03-02T11:18:40.859Z,12.65
2023-03-02T11:21:32.152Z,12.66
2023-03-02T11:24:11.238Z,12.65
2023-03-02T11:26:46.252Z,12.64
2023-03-02T11:29:31.168Z,12.66
2023-03-02T11:32:47.940Z,12.60
2023-03-02T11:35:34.760Z,12.55
2023-03-02T11:38:13.735Z,12.61
2023-03-02T11:40:57.341Z,12.63
2023-03-02T11:43:24.049Z,12.66
2023-03-02T11:46:21.691Z,12.70
2023-03-02T11:48:51.537Z,12.70
2023-03-02T11:51:27.702Z,12.64
2023-03-02T11:53:58.295Z,12.58
2023-03-02T11:56:25.975Z,12.59
2023-03-02T11:59:02.990Z,12.64
2023-03-02T12:01:29.998Z,12.67
2023-03-02T12:04:27.242Z,12.68
2023-03-02T12:06:54.057Z,12.65
2023-03-02T12:09:23.734Z,12.68
2023-03-02T12:12:25.739Z,12.69
2023-03-02T12:14:52.760Z,12.62
2023-03-02T12:17:25.188Z,12.49
2023-03-02T12:19:53.988Z,12.51
2023-03-02T12:22:29.730Z,12.54
2023-03-02T12:25:19.514Z,12.58
2023-03-02T12:27:48.818Z,12.70
2023-03-02T12:30:15.659Z,12.80
2023-03-02T12:32:45.373Z,12.83
2023-03-02T12:35:23.029Z,12.76
2023-03-02T12:37:53.399Z,12.72
2023-03-02T12:40:50.876Z,12.68
2023-03-02T12:43:32.104Z,12.64
2023-03-02T12:46:33.910Z,12.64
2023-03-02T12:49:09.363Z,12.66
2023-03-02T12:51:53.980Z,12.68
2023-03-02T12:54:25.834Z,12.69
2023-03-02T12:57:03.948Z,12.75
2023-03-02T12:59:30.622Z,12.75
2023-03-02T13:02:15.403Z,12.70
2023-03-02T13:04:42.333Z,12.69
2023-03-02T13:07:17.720Z,12.70
2023-03-02T13:09:55.628Z,12.71
2023-03-02T13:12:23.309Z,12.71
2023-03-02T13:14:55.699Z,12.73
2023-03-02T13:17:31.030Z,12.75
2023-03-02T13:20:02.038Z,12.72
2023-03-02T13:22:28.968Z,12.74
2023-03-02T13:25:00.526Z,12.76
2023-03-02T13:27:27.192Z,12.76
2023-03-02T13:29:55.766Z,12.76
2023-03-02T13:32:27.928Z,12.79
2023-03-02T13:34:56.750Z,12.87
2023-03-02T13:37:36.172Z,12.94
2023-03-02T13:40:05.640Z,12.99
2023-03-02T13:42:40.630Z,12.99
2023-03-02T13:45:27.427Z,12.95
2023-03-02T13:47:55.375Z,12.94
2023-03-02T13:50:24.366Z,12.93
2023-03-02T13:52:51.939Z,12.94
2023-03-02T13:55:20.426Z,12.87
2023-03-02T13:57:48.640Z,12.81
2023-03-02T14:00:26.660Z,12.80
2023-03-02T14:02:53.291Z,12.78
2023-03-02T14:05:23.033Z,12.73
2023-03-02T14:07:50.073Z,12.70
2023-03-02T14:10:18.480Z,12.69
2023-03-02T14:13:08.798Z,12.65
2023-03-02T14:15:40.850Z,12.53
2023-03-02T14:18:33.133Z,12.47
2023-03-02T14:20:59.645Z,12.41
2023-03-02T14:23:26.848Z,12.38
2023-03-02T14:25:54.564Z,12.35
2023-03-02T14:28:30.613Z,12.33
2023-03-02T14:30:58.325Z,12.37
2023-03-02T14:33:25.606Z,12.41
2023-03-02T14:35:54.481Z,12.39
2023-03-02T14:38:22.074Z,12.38
2023-03-02T14:40:48.877Z,12.37
2023-03-02T14:43:17.773Z,12.40
2023-03-02T14:45:45.334Z,12.42
2023-03-02T14:48:12.027Z,12.42
2023-03-02T14:50:42.136Z,12.39
2023-03-02T14:53:19.947Z,12.32
2023-03-02T14:55:46.674Z,12.34
2023-03-02T14:58:16.192Z,12.31
2023-03-02T15:00:43.999Z,12.26
2023-03-02T15:03:22.821Z,12.26
2023-03-02T15:06:00.796Z,12.19
2023-03-02T15:08:29.147Z,12.16
2023-03-02T15:10:55.791Z,12.13
2023-03-02T15:13:22.351Z,12.12
2023-03-02T15:15:49.921Z,12.10
2023-03-02T15:18:19.660Z,12.06
2023-03-02T15:20:46.743Z,12.01
2023-03-02T15:23:13.311Z,12.03
2023-03-02T15:25:39.894Z,12.02
2023-03-02T15:28:06.480Z,12.02
2023-03-02T15:30:33.032Z,11.99
2023-03-02T15:32:59.611Z,12.02
2023-03-02T15:35:29.618Z,12.02
2023-03-02T15:37:58.480Z,11.97
2023-03-02T15:40:25.622Z,11.96
2023-03-02T15:42:53.086Z,11.93
2023-03-02T15:45:19.842Z,11.91
2023-03-02T15:47:46.434Z,11.92
2023-03-02T15:50:13.305Z,11.91
2023-03-02T15:52:39.948Z,11.94
2023-03-02T15:55:06.839Z,11.97
2023-03-02T15:57:39.928Z,12.00
2023-03-02T16:00:09.159Z,12.04
2023-03-02T16:02:35.821Z,12.08
2023-03-02T16:05:02.542Z,12.09
2023-03-02T16:07:30.565Z,12.10
2023-03-02T16:09:57.245Z,12.12
2023-03-02T16:12:25.249Z,12.14
2023-03-02T16:14:53.146Z,12.13
2023-03-02T16:17:19.693Z,12.14
2023-03-02T16:19:46.288Z,12.15
2023-03-02T16:22:12.872Z,12.13
2023-03-02T16:24:40.926Z,12.12
2023-03-02T16:27:08.368Z,12.08
2023-03-02T16:29:34.949Z,12.06
2023-03-02T16:32:01.635Z,12.06
2023-03-02T16:34:28.419Z,12.01
2023-03-02T16:36:55.016Z,11.99
2023-03-02T16:39:21.698Z,11.97
2023-03-02T16:41:48.467Z,11.96
2023-03-02T16:44:16.116Z,11.95
2023-03-02T16:46:43.689Z,11.96
2023-03-02T16:49:14.058Z,11.93
2023-03-02T16:51:41.776Z,11.89
2023-03-02T16:54:09.945Z,11.84
2023-03-02T16:56:36.658Z,11.80
2023-03-02T16:59:03.402Z,11.77
2023-03-02T17:01:30.145Z,11.72
2023-03-02T17:03:56.761Z,11.69
2023-03-02T17:06:23.993Z,11.63
2023-03-02T17:08:51.328Z,11.57
2023-03-02T17:11:18.532Z,11.57
2023-03-02T17:13:45.174Z,11.55
2023-03-02T17:16:12.654Z,11.53
2023-03-02T17:18:40.948Z,11.51
2023-03-02T17:21:07.516Z,11.50
2023-03-02T17:23:34.136Z,11.48
2023-03-02T17:26:00.786Z,11.46
2023-03-02T17:28:27.582Z,11.47
2023-03-02T17:30:54.425Z,11.47
2023-03-02T17:33:21.239Z,11.49
2023-03-02T17:35:48.102Z,11.52
2023-03-02T17:38:15.361Z,11.52
2023-03-02T17:40:42.740Z,11.52
2023-03-02T17:43:10.595Z,11.53
2023-03-02T17:45:37.244Z,11.56
2023-03-02T17:48:04.152Z,11.57
2023-03-02T17:50:33.601Z,11.54
2023-03-02T17:53:00.176Z,11.56
2023-03-02T17:55:27.066Z,11.55
2023-03-02T17:57:53.738Z,11.53
2023-03-02T18:00:22.093Z,11.51
2023-03-02T18:02:49.055Z,11.51
2023-03-02T18:05:16.265Z,11.52
2023-03-02T18:07:42.777Z,11.53
2023-03-02T18:10:09.884Z,11.52
2023-03-02T18:12:36.580Z,11.50
2023-03-02T18:15:03.615Z,11.48
2023-03-02T18:17:30.232Z,11.48
2023-03-02T18:19:56.816Z,11.49
2023-03-02T18:22:23.397Z,11.49
2023-03-02T18:24:51.898Z,11.49
2023-03-02T18:27:18.903Z,11.47
2023-03-02T18:29:45.458Z,11.46
2023-03-02T18:32:12.519Z,11.47
2023-03-02T18:34:39.420Z,11.48
2023-03-02T18:37:05.956Z,11.46
2023-03-02T18:39:32.566Z,11.45
2023-03-02T18:41:59.531Z,11.43
2023-03-02T18:44:28.118Z,11.41
2023-03-02T18:46:55.290Z,11.35
2023-03-02T18:49:22.055Z,11.24
2023-03-02T18:51:48.715Z,11.20
2023-03-02T18:54:15.392Z,11.18
2023-03-02T18:56:42.027Z,11.22
2023-03-02T18:59:09.605Z,11.25
2023-03-02T19:01:36.212Z,11.27
2023-03-02T19:04:03.670Z,11.26
2023-03-02T19:06:30.726Z,11.25
2023-03-02T19:08:58.106Z,11.26
2023-03-02T19:11:24.730Z,11.30
2023-03-02T19:13:51.292Z,11.30
2023-03-02T19:16:18.617Z,11.35
2023-03-02T19:18:45.290Z,11.41
2023-03-02T19:21:11.822Z,11.45
2023-03-02T19:23:38.503Z,11.49
2023-03-02T19:26:05.281Z,11.52
2023-03-02T19:28:35.016Z,11.55
2023-03-02T19:31:06.795Z,11.57
2023-03-02T19:33:33.547Z,11.59
2023-03-02T19:36:00.260Z,11.64
2023-03-02T19:38:29.248Z,11.69
2023-03-02T19:41:00.218Z,11.72
2023-03-02T19:43:28.304Z,11.77
2023-03-02T19:45:55.247Z,11.81
2023-03-02T19:48:23.973Z,11.82
2023-03-02T19:50:53.702Z,11.85
2023-03-02T19:53:30.498Z,11.86
2023-03-02T19:56:07.286Z,11.84
2023-03-02T19:58:34.985Z,11.82
2023-03-02T20:01:03.836Z,11.83
2023-03-02T20:03:30.863Z,11.84
2023-03-02T20:05:58.952Z,11.81
2023-03-02T20:08:25.578Z,11.78
2023-03-02T20:10:52.245Z,11.75
2023-03-02T20:13:18.918Z,11.70
2023-03-02T20:15:47.217Z,11.65
2023-03-02T20:18:16.725Z,11.54
2023-03-02T20:20:45.196Z,11.41
2023-03-02T20:23:12.899Z,11.34
2023-03-02T20:25:39.879Z,11.28
2023-03-02T20:28:07.108Z,11.25
2023-03-02T20:30:39.900Z,11.25
2023-03-02T20:33:08.017Z,11.25
2023-03-02T20:35:39.018Z,11.29
2023-03-02T20:38:06.622Z,11.31
2023-03-02T20:40:33.943Z,11.30
2023-03-02T20:43:00.749Z,11.30
2023-03-02T20:45:27.873Z,11.38
2023-03-02T20:47:55.409Z,11.41
2023-03-02T20:50:24.787Z,11.42
2023-03-02T20:52:51.407Z,11.45
2023-03-02T20:55:18.465Z,11.47
2023-03-02T20:57:45.219Z,11.50
2023-03-02T21:00:20.883Z,11.56
2023-03-02T21:02:48.318Z,11.58
2023-03-02T21:05:16.240Z,11.57
2023-03-02T21:07:43.416Z,11.63
2023-03-02T21:10:15.226Z,11.67
2023-03-02T21:12:46.025Z,11.73
2023-03-02T21:15:12.952Z,11.76
2023-03-02T21:17:39.476Z,11.75
2023-03-02T21:20:06.804Z,11.72
2023-03-02T21:22:34.402Z,11.70
2023-03-02T21:25:03.162Z,11.66
2023-03-02T21:27:29.728Z,11.62
2023-03-02T21:29:56.540Z,11.56
2023-03-02T21:32:23.678Z,11.55
2023-03-02T21:34:50.259Z,11.55
2023-03-02T21:37:16.874Z,11.56
2023-03-02T21:39:43.482Z,11.56
2023-03-02T21:42:11.100Z,11.57
2023-03-02T21:44:38.069Z,11.56
2023-03-02T21:47:06.939Z,11.56
2023-03-02T21:49:34.108Z,11.56
2023-03-02T21:52:00.776Z,11.56
2023-03-02T21:54:28.190Z,11.49
2023-03-02T21:56:54.906Z,11.46
2023-03-02T21:59:21.471Z,11.47
2023-03-02T22:01:48.163Z,11.49
2023-03-02T22:04:14.778Z,11.52
2023-03-02T22:06:41.360Z,11.53
2023-03-02T22:09:11.436Z,11.53
2023-03-02T22:11:38.530Z,11.53
2023-03-02T22:14:13.887Z,11.50
2023-03-02T22:16:42.639Z,11.48
2023-03-02T22:19:27.165Z,11.43
2023-03-02T22:22:00.116Z,11.42
2023-03-02T22:24:29.019Z,11.38
2023-03-02T22:26:58.676Z,11.35
2023-03-02T22:29:26.446Z,11.35
2023-03-02T22:31:55.656Z,11.35
2023-03-02T22:34:27.914Z,11.35
2023-03-02T22:36:59.108Z,11.30
2023-03-02T22:39:33.501Z,11.28
2023-03-02T22:42:16.054Z,11.24
2023-03-02T22:44:43.304Z,11.18
2023-03-02T22:47:15.545Z,11.17
2023-03-02T22:49:43.622Z,11.17
2023-03-02T22:52:19.528Z,11.16
2023-03-02T22:54:46.166Z,11.15
2023-03-02T22:57:27.930Z,11.09
2023-03-02T23:00:11.541Z,11.05
2023-03-02T23:02:42.418Z,10.99
2023-03-02T23:05:29.166Z,10.93
2023-03-02T23:08:23.065Z,10.88
2023-03-02T23:10:52.034Z,10.89
2023-03-02T23:13:22.061Z,10.90
2023-03-02T23:15:50.498Z,10.89
2023-03-02T23:18:23.861Z,10.88
2023-03-02T23:20:51.364Z,10.85
2023-03-02T23:23:19.726Z,10.86
2023-03-02T23:25:46.599Z,10.86
2023-03-02T23:28:13.221Z,10.89
2023-03-02T23:30:39.947Z,10.95
